sensor_id;sensor_type;location;lat;lon;timestamp;temperature;humidity
27667;DHT22;15074;50.940;5.282;2023-09-18T00:00:53;20.10;99.90
27667;DHT22;15074;50.940;5.282;2023-09-18T00:03:21;20.20;99.90
27667;DHT22;15074;50.940;5.282;2023-09-18T00:05:50;20.10;99.90
27667;DHT22;15074;50.940;5.282;2023-09-18T00:08:18;20.00;99.90
27667;DHT22;15074;50.940;5.282;2023-09-18T00:10:54;19.90;99.90
27667;DHT22;15074;50.940;5.282;2023-09-18T00:13:21;19.90;99.90
27667;DHT22;15074;50.940;5.282;2023-09-18T00:15:47;20.00;99.90
27667;DHT22;15074;50.940;5.282;2023-09-18T00:18:15;20.00;99.90
27667;DHT22;15074;50.940;5.282;2023-09-18T00:20:41;19.90;99.90
27667;DHT22;15074;50.940;5.282;2023-09-18T00:23:08;19.70;99.90
27667;DHT22;15074;50.940;5.282;2023-09-18T00:25:34;19.70;99.90
27667;DHT22;15074;50.940;5.282;2023-09-18T00:28:00;19.60;99.90
27667;DHT22;15074;50.940;5.282;2023-09-18T00:30:25;19.60;99.90
27667;DHT22;15074;50.940;5.282;2023-09-18T00:32:51;19.60;99.90
27667;DHT22;15074;50.940;5.282;2023-09-18T00:35:17;19.50;99.90
27667;DHT22;15074;50.940;5.282;2023-09-18T00:37:43;19.60;99.90
27667;DHT22;15074;50.940;5.282;2023-09-18T00:40:09;19.80;99.90
27667;DHT22;15074;50.940;5.282;2023-09-18T00:42:36;19.70;99.90
27667;DHT22;15074;50.940;5.282;2023-09-18T00:45:02;19.70;99.90
27667;DHT22;15074;50.940;5.282;2023-09-18T00:47:28;19.60;99.90
27667;DHT22;15074;50.940;5.282;2023-09-18T00:49:54;19.70;99.90
27667;DHT22;15074;50.940;5.282;2023-09-18T00:52:21;19.90;99.90
27667;DHT22;15074;50.940;5.282;2023-09-18T00:54:48;19.80;99.90
27667;DHT22;15074;50.940;5.282;2023-09-18T00:57:14;19.80;99.90
27667;DHT22;15074;50.940;5.282;2023-09-18T00:59:40;19.80;99.90
27667;DHT22;15074;50.940;5.282;2023-09-18T01:02:06;19.80;99.90
27667;DHT22;15074;50.940;5.282;2023-09-18T01:04:33;19.80;99.90
27667;DHT22;15074;50.940;5.282;2023-09-18T01:07:00;19.80;99.90
27667;DHT22;15074;50.940;5.282;2023-09-18T01:09:30;19.80;99.90
27667;DHT22;15074;50.940;5.282;2023-09-18T01:17:40;19.90;99.90
27667;DHT22;15074;50.940;5.282;2023-09-18T01:20:11;19.90;99.90
27667;DHT22;15074;50.940;5.282;2023-09-18T01:22:36;19.80;99.90
27667;DHT22;15074;50.940;5.282;2023-09-18T01:25:02;19.90;99.90
27667;DHT22;15074;50.940;5.282;2023-09-18T01:27:28;19.90;99.90
27667;DHT22;15074;50.940;5.282;2023-09-18T01:29:54;20.00;99.90
27667;DHT22;15074;50.940;5.282;2023-09-18T01:32:22;20.10;99.90
27667;DHT22;15074;50.940;5.282;2023-09-18T01:34:53;20.10;99.90
27667;DHT22;15074;50.940;5.282;2023-09-18T01:37:22;20.20;99.90
27667;DHT22;15074;50.940;5.282;2023-09-18T01:39:50;20.30;99.90
27667;DHT22;15074;50.940;5.282;2023-09-18T01:42:16;20.40;99.90
27667;DHT22;15074;50.940;5.282;2023-09-18T01:44:43;20.40;99.90
27667;DHT22;15074;50.940;5.282;2023-09-18T01:47:14;20.40;99.90
27667;DHT22;15074;50.940;5.282;2023-09-18T01:49:41;20.40;99.90
27667;DHT22;15074;50.940;5.282;2023-09-18T01:52:08;20.30;99.90
27667;DHT22;15074;50.940;5.282;2023-09-18T01:54:34;20.40;99.90
27667;DHT22;15074;50.940;5.282;2023-09-18T01:57:00;20.50;99.90
27667;DHT22;15074;50.940;5.282;2023-09-18T01:59:26;20.60;99.90
27667;DHT22;15074;50.940;5.282;2023-09-18T02:01:52;20.70;99.90
27667;DHT22;15074;50.940;5.282;2023-09-18T02:04:19;20.80;99.90
27667;DHT22;15074;50.940;5.282;2023-09-18T02:06:47;20.80;99.90
27667;DHT22;15074;50.940;5.282;2023-09-18T02:09:13;20.80;99.90
27667;DHT22;15074;50.940;5.282;2023-09-18T02:11:40;20.90;99.90
27667;DHT22;15074;50.940;5.282;2023-09-18T02:14:06;20.90;99.90
27667;DHT22;15074;50.940;5.282;2023-09-18T02:16:33;20.90;99.90
27667;DHT22;15074;50.940;5.282;2023-09-18T02:18:59;20.90;99.90
27667;DHT22;15074;50.940;5.282;2023-09-18T02:21:25;20.80;99.90
27667;DHT22;15074;50.940;5.282;2023-09-18T02:23:52;20.80;99.90
27667;DHT22;15074;50.940;5.282;2023-09-18T02:26:19;20.80;99.90
27667;DHT22;15074;50.940;5.282;2023-09-18T02:28:44;20.60;99.90
27667;DHT22;15074;50.940;5.282;2023-09-18T02:31:10;20.50;99.90
27667;DHT22;15074;50.940;5.282;2023-09-18T02:33:39;20.30;99.90
27667;DHT22;15074;50.940;5.282;2023-09-18T02:36:05;20.10;99.90
27667;DHT22;15074;50.940;5.282;2023-09-18T02:38:32;20.10;99.90
27667;DHT22;15074;50.940;5.282;2023-09-18T02:40:58;20.20;99.90
27667;DHT22;15074;50.940;5.282;2023-09-18T02:43:24;20.10;99.90
27667;DHT22;15074;50.940;5.282;2023-09-18T02:45:50;20.00;99.90
27667;DHT22;15074;50.940;5.282;2023-09-18T02:48:16;19.90;99.90
27667;DHT22;15074;50.940;5.282;2023-09-18T02:50:42;19.80;99.90
27667;DHT22;15074;50.940;5.282;2023-09-18T02:53:16;19.70;99.90
27667;DHT22;15074;50.940;5.282;2023-09-18T02:55:43;19.60;99.90
27667;DHT22;15074;50.940;5.282;2023-09-18T02:58:09;19.50;99.90
27667;DHT22;15074;50.940;5.282;2023-09-18T03:00:40;19.40;99.90
27667;DHT22;15074;50.940;5.282;2023-09-18T03:03:06;19.40;99.90
27667;DHT22;15074;50.940;5.282;2023-09-18T03:05:32;19.40;99.90
27667;DHT22;15074;50.940;5.282;2023-09-18T03:07:57;19.40;99.90
27667;DHT22;15074;50.940;5.282;2023-09-18T03:10:23;19.40;99.90
27667;DHT22;15074;50.940;5.282;2023-09-18T03:12:49;19.40;99.90
27667;DHT22;15074;50.940;5.282;2023-09-18T03:15:14;19.60;99.90
27667;DHT22;15074;50.940;5.282;2023-09-18T03:17:40;19.60;99.90
27667;DHT22;15074;50.940;5.282;2023-09-18T03:20:08;19.40;99.90
27667;DHT22;15074;50.940;5.282;2023-09-18T03:22:34;19.40;99.90
27667;DHT22;15074;50.940;5.282;2023-09-18T03:25:00;19.40;99.90
27667;DHT22;15074;50.940;5.282;2023-09-18T03:27:25;19.30;99.90
27667;DHT22;15074;50.940;5.282;2023-09-18T03:29:56;19.20;99.90
27667;DHT22;15074;50.940;5.282;2023-09-18T03:32:22;19.20;99.90
27667;DHT22;15074;50.940;5.282;2023-09-18T03:34:51;19.30;99.90
27667;DHT22;15074;50.940;5.282;2023-09-18T03:37:16;19.20;99.90
27667;DHT22;15074;50.940;5.282;2023-09-18T03:39:42;19.10;99.90
27667;DHT22;15074;50.940;5.282;2023-09-18T03:42:08;19.10;99.90
27667;DHT22;15074;50.940;5.282;2023-09-18T03:44:43;19.00;99.90
27667;DHT22;15074;50.940;5.282;2023-09-18T03:47:09;19.00;99.90
27667;DHT22;15074;50.940;5.282;2023-09-18T03:49:35;19.00;99.90
27667;DHT22;15074;50.940;5.282;2023-09-18T03:52:00;19.00;99.90
27667;DHT22;15074;50.940;5.282;2023-09-18T03:54:26;19.00;99.90
27667;DHT22;15074;50.940;5.282;2023-09-18T03:56:51;19.00;99.90
27667;DHT22;15074;50.940;5.282;2023-09-18T03:59:17;19.10;99.90
27667;DHT22;15074;50.940;5.282;2023-09-18T04:01:43;19.20;99.90
27667;DHT22;15074;50.940;5.282;2023-09-18T04:04:08;19.30;99.90
27667;DHT22;15074;50.940;5.282;2023-09-18T04:06:40;19.30;99.90
27667;DHT22;15074;50.940;5.282;2023-09-18T04:09:06;19.20;99.90
27667;DHT22;15074;50.940;5.282;2023-09-18T04:11:32;19.20;99.90
27667;DHT22;15074;50.940;5.282;2023-09-18T04:14:00;19.20;99.90
27667;DHT22;15074;50.940;5.282;2023-09-18T04:16:26;19.30;99.90
27667;DHT22;15074;50.940;5.282;2023-09-18T04:18:53;19.30;99.90
27667;DHT22;15074;50.940;5.282;2023-09-18T04:21:19;19.30;99.90
27667;DHT22;15074;50.940;5.282;2023-09-18T04:23:47;19.30;99.90
27667;DHT22;15074;50.940;5.282;2023-09-18T04:26:13;19.30;99.90
27667;DHT22;15074;50.940;5.282;2023-09-18T04:28:41;19.30;99.90
27667;DHT22;15074;50.940;5.282;2023-09-18T04:31:07;19.40;99.90
27667;DHT22;15074;50.940;5.282;2023-09-18T04:33:33;19.40;99.90
27667;DHT22;15074;50.940;5.282;2023-09-18T04:35:58;19.40;99.90
27667;DHT22;15074;50.940;5.282;2023-09-18T04:38:24;19.40;99.90
27667;DHT22;15074;50.940;5.282;2023-09-18T04:40:57;19.40;99.90
27667;DHT22;15074;50.940;5.282;2023-09-18T04:43:22;19.40;99.90
27667;DHT22;15074;50.940;5.282;2023-09-18T04:45:50;19.40;99.90
27667;DHT22;15074;50.940;5.282;2023-09-18T04:48:16;19.40;99.90
27667;DHT22;15074;50.940;5.282;2023-09-18T04:50:42;19.40;99.90
27667;DHT22;15074;50.940;5.282;2023-09-18T04:53:08;19.40;99.90
27667;DHT22;15074;50.940;5.282;2023-09-18T04:55:34;19.40;99.90
27667;DHT22;15074;50.940;5.282;2023-09-18T04:57:59;19.40;99.90
27667;DHT22;15074;50.940;5.282;2023-09-18T05:00:25;19.50;99.90
27667;DHT22;15074;50.940;5.282;2023-09-18T05:02:52;19.40;99.90
27667;DHT22;15074;50.940;5.282;2023-09-18T05:05:18;19.40;99.90
27667;DHT22;15074;50.940;5.282;2023-09-18T05:07:44;19.40;99.90
27667;DHT22;15074;50.940;5.282;2023-09-18T05:10:10;19.30;99.90
27667;DHT22;15074;50.940;5.282;2023-09-18T05:12:38;19.30;99.90
27667;DHT22;15074;50.940;5.282;2023-09-18T05:15:04;19.30;99.90
27667;DHT22;15074;50.940;5.282;2023-09-18T05:17:45;19.30;99.90
27667;DHT22;15074;50.940;5.282;2023-09-18T05:20:17;19.20;99.90
27667;DHT22;15074;50.940;5.282;2023-09-18T05:22:43;19.20;99.90
27667;DHT22;15074;50.940;5.282;2023-09-18T05:25:09;19.10;99.90
27667;DHT22;15074;50.940;5.282;2023-09-18T05:27:38;19.20;99.90
27667;DHT22;15074;50.940;5.282;2023-09-18T05:30:11;19.10;99.90
27667;DHT22;15074;50.940;5.282;2023-09-18T05:32:38;19.10;99.90
27667;DHT22;15074;50.940;5.282;2023-09-18T05:35:04;19.10;99.90
27667;DHT22;15074;50.940;5.282;2023-09-18T05:37:32;19.10;99.90
27667;DHT22;15074;50.940;5.282;2023-09-18T05:39:58;19.00;99.90
27667;DHT22;15074;50.940;5.282;2023-09-18T05:42:24;19.10;99.90
27667;DHT22;15074;50.940;5.282;2023-09-18T05:44:49;19.10;99.90
27667;DHT22;15074;50.940;5.282;2023-09-18T05:47:15;19.10;99.90
27667;DHT22;15074;50.940;5.282;2023-09-18T05:49:41;19.10;99.90
27667;DHT22;15074;50.940;5.282;2023-09-18T05:52:06;19.10;99.90
27667;DHT22;15074;50.940;5.282;2023-09-18T05:54:32;19.10;99.90
27667;DHT22;15074;50.940;5.282;2023-09-18T05:56:57;19.10;99.90
27667;DHT22;15074;50.940;5.282;2023-09-18T05:59:23;19.10;99.90
27667;DHT22;15074;50.940;5.282;2023-09-18T06:01:49;19.10;99.90
27667;DHT22;15074;50.940;5.282;2023-09-18T06:04:14;19.10;99.90
27667;DHT22;15074;50.940;5.282;2023-09-18T06:06:42;19.10;99.90
27667;DHT22;15074;50.940;5.282;2023-09-18T06:09:08;19.00;99.90
27667;DHT22;15074;50.940;5.282;2023-09-18T06:11:33;19.10;99.90
27667;DHT22;15074;50.940;5.282;2023-09-18T06:14:05;19.10;99.90
27667;DHT22;15074;50.940;5.282;2023-09-18T06:16:31;19.10;99.90
27667;DHT22;15074;50.940;5.282;2023-09-18T06:18:56;19.10;99.90
27667;DHT22;15074;50.940;5.282;2023-09-18T06:21:22;19.10;99.90
27667;DHT22;15074;50.940;5.282;2023-09-18T06:23:47;19.20;99.90
27667;DHT22;15074;50.940;5.282;2023-09-18T06:26:13;19.20;99.90
27667;DHT22;15074;50.940;5.282;2023-09-18T06:28:40;19.10;99.90
27667;DHT22;15074;50.940;5.282;2023-09-18T06:31:05;19.20;99.90
27667;DHT22;15074;50.940;5.282;2023-09-18T06:33:31;19.20;99.90
27667;DHT22;15074;50.940;5.282;2023-09-18T06:35:56;19.20;99.90
27667;DHT22;15074;50.940;5.282;2023-09-18T06:38:22;19.20;99.90
27667;DHT22;15074;50.940;5.282;2023-09-18T06:40:48;19.30;99.90
27667;DHT22;15074;50.940;5.282;2023-09-18T06:43:13;19.30;99.90
27667;DHT22;15074;50.940;5.282;2023-09-18T06:45:39;19.30;99.90
27667;DHT22;15074;50.940;5.282;2023-09-18T06:48:05;19.30;99.90
27667;DHT22;15074;50.940;5.282;2023-09-18T06:50:31;19.30;99.90
27667;DHT22;15074;50.940;5.282;2023-09-18T06:52:57;19.30;99.90
27667;DHT22;15074;50.940;5.282;2023-09-18T06:55:22;19.30;99.90
27667;DHT22;15074;50.940;5.282;2023-09-18T06:57:48;19.30;99.90
27667;DHT22;15074;50.940;5.282;2023-09-18T07:00:16;19.40;99.90
27667;DHT22;15074;50.940;5.282;2023-09-18T07:02:46;19.30;99.90
27667;DHT22;15074;50.940;5.282;2023-09-18T07:05:11;19.30;99.90
27667;DHT22;15074;50.940;5.282;2023-09-18T07:07:37;19.30;99.90
27667;DHT22;15074;50.940;5.282;2023-09-18T07:10:03;19.40;99.90
27667;DHT22;15074;50.940;5.282;2023-09-18T07:12:29;19.30;99.90
27667;DHT22;15074;50.940;5.282;2023-09-18T07:15:02;19.40;99.90
27667;DHT22;15074;50.940;5.282;2023-09-18T07:17:29;19.40;99.90
27667;DHT22;15074;50.940;5.282;2023-09-18T07:19:54;19.50;99.90
27667;DHT22;15074;50.940;5.282;2023-09-18T07:22:20;19.50;99.90
27667;DHT22;15074;50.940;5.282;2023-09-18T07:24:46;19.50;99.90
27667;DHT22;15074;50.940;5.282;2023-09-18T07:27:11;19.60;99.90
27667;DHT22;15074;50.940;5.282;2023-09-18T07:29:38;19.60;99.90
27667;DHT22;15074;50.940;5.282;2023-09-18T07:32:04;19.60;99.90
27667;DHT22;15074;50.940;5.282;2023-09-18T07:34:30;19.70;99.90
27667;DHT22;15074;50.940;5.282;2023-09-18T07:36:55;19.80;99.90
27667;DHT22;15074;50.940;5.282;2023-09-18T07:39:22;19.90;99.90
27667;DHT22;15074;50.940;5.282;2023-09-18T07:41:47;20.00;99.90
27667;DHT22;15074;50.940;5.282;2023-09-18T07:44:19;19.80;99.90
27667;DHT22;15074;50.940;5.282;2023-09-18T07:46:46;19.80;99.90
27667;DHT22;15074;50.940;5.282;2023-09-18T07:49:11;19.80;99.90
27667;DHT22;15074;50.940;5.282;2023-09-18T07:51:37;19.90;99.90
27667;DHT22;15074;50.940;5.282;2023-09-18T07:54:03;19.80;99.90
27667;DHT22;15074;50.940;5.282;2023-09-18T07:56:29;19.80;99.90
27667;DHT22;15074;50.940;5.282;2023-09-18T07:58:58;20.00;99.90
27667;DHT22;15074;50.940;5.282;2023-09-18T08:01:24;20.10;99.90
27667;DHT22;15074;50.940;5.282;2023-09-18T08:03:50;20.30;99.90
27667;DHT22;15074;50.940;5.282;2023-09-18T08:06:16;21.00;99.90
27667;DHT22;15074;50.940;5.282;2023-09-18T08:08:44;21.00;99.90
27667;DHT22;15074;50.940;5.282;2023-09-18T08:11:10;21.20;99.90
27667;DHT22;15074;50.940;5.282;2023-09-18T08:13:36;21.50;99.90
27667;DHT22;15074;50.940;5.282;2023-09-18T08:16:02;21.70;99.90
27667;DHT22;15074;50.940;5.282;2023-09-18T08:18:29;21.40;99.90
27667;DHT22;15074;50.940;5.282;2023-09-18T08:20:55;21.10;99.90
27667;DHT22;15074;50.940;5.282;2023-09-18T08:23:23;21.00;99.90
27667;DHT22;15074;50.940;5.282;2023-09-18T08:25:49;21.20;99.90
27667;DHT22;15074;50.940;5.282;2023-09-18T08:28:16;21.20;99.90
27667;DHT22;15074;50.940;5.282;2023-09-18T08:30:42;21.40;99.90
27667;DHT22;15074;50.940;5.282;2023-09-18T08:33:13;21.60;99.90
27667;DHT22;15074;50.940;5.282;2023-09-18T08:35:39;22.20;99.90
27667;DHT22;15074;50.940;5.282;2023-09-18T08:38:05;22.50;99.90
27667;DHT22;15074;50.940;5.282;2023-09-18T08:40:31;23.00;99.90
27667;DHT22;15074;50.940;5.282;2023-09-18T08:42:58;23.80;99.90
27667;DHT22;15074;50.940;5.282;2023-09-18T08:47:55;24.10;99.90
27667;DHT22;15074;50.940;5.282;2023-09-18T08:50:21;24.80;99.90
27667;DHT22;15074;50.940;5.282;2023-09-18T08:52:49;26.00;99.90
27667;DHT22;15074;50.940;5.282;2023-09-18T08:55:16;25.90;99.90
27667;DHT22;15074;50.940;5.282;2023-09-18T08:57:42;26.10;99.90
27667;DHT22;15074;50.940;5.282;2023-09-18T09:00:11;26.30;99.90
27667;DHT22;15074;50.940;5.282;2023-09-18T09:02:43;27.10;99.90
27667;DHT22;15074;50.940;5.282;2023-09-18T09:05:09;27.10;99.90
27667;DHT22;15074;50.940;5.282;2023-09-18T09:07:35;27.30;99.90
27667;DHT22;15074;50.940;5.282;2023-09-18T09:10:00;26.40;99.90
27667;DHT22;15074;50.940;5.282;2023-09-18T09:12:49;26.80;99.90
27667;DHT22;15074;50.940;5.282;2023-09-18T09:15:15;26.60;99.90
27667;DHT22;15074;50.940;5.282;2023-09-18T09:17:42;26.50;99.90
27667;DHT22;15074;50.940;5.282;2023-09-18T09:20:09;26.20;99.90
27667;DHT22;15074;50.940;5.282;2023-09-18T09:22:39;25.90;99.90
27667;DHT22;15074;50.940;5.282;2023-09-18T09:25:21;25.90;99.90
27667;DHT22;15074;50.940;5.282;2023-09-18T09:27:48;26.00;99.90
27667;DHT22;15074;50.940;5.282;2023-09-18T09:30:25;25.80;99.90
27667;DHT22;15074;50.940;5.282;2023-09-18T09:32:53;25.80;99.90
27667;DHT22;15074;50.940;5.282;2023-09-18T09:35:26;25.60;99.90
27667;DHT22;15074;50.940;5.282;2023-09-18T09:37:56;25.60;99.90
27667;DHT22;15074;50.940;5.282;2023-09-18T09:40:24;26.00;99.90
27667;DHT22;15074;50.940;5.282;2023-09-18T09:42:55;25.00;99.90
27667;DHT22;15074;50.940;5.282;2023-09-18T09:45:27;24.90;99.90
27667;DHT22;15074;50.940;5.282;2023-09-18T09:48:00;24.40;99.90
27667;DHT22;15074;50.940;5.282;2023-09-18T09:50:26;23.40;99.90
27667;DHT22;15074;50.940;5.282;2023-09-18T09:52:53;23.30;99.90
27667;DHT22;15074;50.940;5.282;2023-09-18T09:57:52;22.70;99.90
27667;DHT22;15074;50.940;5.282;2023-09-18T10:00:20;22.80;99.90
27667;DHT22;15074;50.940;5.282;2023-09-18T10:02:59;22.50;99.90
27667;DHT22;15074;50.940;5.282;2023-09-18T10:05:28;22.60;99.90
27667;DHT22;15074;50.940;5.282;2023-09-18T10:07:57;22.80;99.90
27667;DHT22;15074;50.940;5.282;2023-09-18T10:10:30;22.80;99.90
27667;DHT22;15074;50.940;5.282;2023-09-18T10:13:02;22.70;99.90
27667;DHT22;15074;50.940;5.282;2023-09-18T10:15:32;22.70;99.90
27667;DHT22;15074;50.940;5.282;2023-09-18T10:18:00;22.60;99.90
27667;DHT22;15074;50.940;5.282;2023-09-18T10:20:28;22.70;99.90
27667;DHT22;15074;50.940;5.282;2023-09-18T10:22:57;22.80;99.90
27667;DHT22;15074;50.940;5.282;2023-09-18T10:25:29;23.20;99.90
27667;DHT22;15074;50.940;5.282;2023-09-18T10:27:56;23.60;99.90
27667;DHT22;15074;50.940;5.282;2023-09-18T10:30:27;23.80;99.90
27667;DHT22;15074;50.940;5.282;2023-09-18T10:32:56;24.00;99.90
27667;DHT22;15074;50.940;5.282;2023-09-18T10:35:23;24.90;99.90
27667;DHT22;15074;50.940;5.282;2023-09-18T10:37:49;25.70;99.90
27667;DHT22;15074;50.940;5.282;2023-09-18T10:40:20;26.30;99.90
27667;DHT22;15074;50.940;5.282;2023-09-18T10:42:48;27.30;99.90
27667;DHT22;15074;50.940;5.282;2023-09-18T10:45:15;27.90;99.90
27667;DHT22;15074;50.940;5.282;2023-09-18T10:47:44;26.60;99.90
27667;DHT22;15074;50.940;5.282;2023-09-18T10:50:23;25.00;99.90
27667;DHT22;15074;50.940;5.282;2023-09-18T10:52:49;24.40;99.90
27667;DHT22;15074;50.940;5.282;2023-09-18T10:55:15;24.20;99.90
27667;DHT22;15074;50.940;5.282;2023-09-18T10:57:55;24.90;99.90
27667;DHT22;15074;50.940;5.282;2023-09-18T11:00:24;25.10;99.90
27667;DHT22;15074;50.940;5.282;2023-09-18T11:02:54;24.50;99.90
27667;DHT22;15074;50.940;5.282;2023-09-18T11:05:34;24.20;99.90
27667;DHT22;15074;50.940;5.282;2023-09-18T11:08:35;23.10;99.90
27667;DHT22;15074;50.940;5.282;2023-09-18T11:11:09;23.20;99.90
27667;DHT22;15074;50.940;5.282;2023-09-18T11:13:43;24.20;99.90
27667;DHT22;15074;50.940;5.282;2023-09-18T11:21:28;24.60;99.90
27667;DHT22;15074;50.940;5.282;2023-09-18T11:24:05;25.90;99.90
27667;DHT22;15074;50.940;5.282;2023-09-18T11:26:32;26.80;99.90
27667;DHT22;15074;50.940;5.282;2023-09-18T11:29:06;26.60;99.90
27667;DHT22;15074;50.940;5.282;2023-09-18T11:31:50;26.30;99.90
27667;DHT22;15074;50.940;5.282;2023-09-18T11:34:30;25.60;99.90
27667;DHT22;15074;50.940;5.282;2023-09-18T11:37:22;25.30;99.90
27667;DHT22;15074;50.940;5.282;2023-09-18T11:39:48;25.10;99.90
27667;DHT22;15074;50.940;5.282;2023-09-18T11:42:20;24.60;99.90
27667;DHT22;15074;50.940;5.282;2023-09-18T11:44:49;25.60;99.90
27667;DHT22;15074;50.940;5.282;2023-09-18T11:47:20;26.50;99.90
27667;DHT22;15074;50.940;5.282;2023-09-18T11:49:53;26.40;99.90
27667;DHT22;15074;50.940;5.282;2023-09-18T11:52:25;26.30;99.90
27667;DHT22;15074;50.940;5.282;2023-09-18T11:54:52;26.20;99.90
27667;DHT22;15074;50.940;5.282;2023-09-18T11:57:18;25.40;99.90
27667;DHT22;15074;50.940;5.282;2023-09-18T11:59:47;24.40;99.90
27667;DHT22;15074;50.940;5.282;2023-09-18T12:02:33;25.00;99.90
27667;DHT22;15074;50.940;5.282;2023-09-18T12:05:19;25.60;99.90
27667;DHT22;15074;50.940;5.282;2023-09-18T12:07:46;26.20;99.90
27667;DHT22;15074;50.940;5.282;2023-09-18T12:10:16;25.40;99.90
27667;DHT22;15074;50.940;5.282;2023-09-18T12:12:46;25.80;99.90
27667;DHT22;15074;50.940;5.282;2023-09-18T12:15:13;26.00;99.90
27667;DHT22;15074;50.940;5.282;2023-09-18T12:17:40;25.80;99.90
27667;DHT22;15074;50.940;5.282;2023-09-18T12:20:09;26.50;99.90
27667;DHT22;15074;50.940;5.282;2023-09-18T12:22:39;26.60;99.90
27667;DHT22;15074;50.940;5.282;2023-09-18T12:25:12;26.20;99.90
27667;DHT22;15074;50.940;5.282;2023-09-18T12:27:42;26.30;99.90
27667;DHT22;15074;50.940;5.282;2023-09-18T12:30:08;26.90;99.90
27667;DHT22;15074;50.940;5.282;2023-09-18T12:32:38;27.00;99.90
27667;DHT22;15074;50.940;5.282;2023-09-18T12:35:07;27.80;99.90
27667;DHT22;15074;50.940;5.282;2023-09-18T12:37:41;27.50;99.90
27667;DHT22;15074;50.940;5.282;2023-09-18T12:40:27;27.50;99.90
27667;DHT22;15074;50.940;5.282;2023-09-18T12:42:57;27.50;99.90
27667;DHT22;15074;50.940;5.282;2023-09-18T12:45:27;27.30;99.90
27667;DHT22;15074;50.940;5.282;2023-09-18T12:47:55;27.20;99.90
27667;DHT22;15074;50.940;5.282;2023-09-18T12:50:22;26.70;99.90
27667;DHT22;15074;50.940;5.282;2023-09-18T12:52:48;26.50;99.90
27667;DHT22;15074;50.940;5.282;2023-09-18T12:55:26;26.80;99.90
27667;DHT22;15074;50.940;5.282;2023-09-18T12:57:53;27.20;99.90
27667;DHT22;15074;50.940;5.282;2023-09-18T13:00:20;26.90;99.90
27667;DHT22;15074;50.940;5.282;2023-09-18T13:02:49;27.20;99.90
27667;DHT22;15074;50.940;5.282;2023-09-18T13:05:23;26.70;99.90
27667;DHT22;15074;50.940;5.282;2023-09-18T13:07:55;26.60;99.90
27667;DHT22;15074;50.940;5.282;2023-09-18T13:10:21;26.80;99.90
27667;DHT22;15074;50.940;5.282;2023-09-18T13:12:52;26.00;99.90
27667;DHT22;15074;50.940;5.282;2023-09-18T13:17:52;26.70;99.90
27667;DHT22;15074;50.940;5.282;2023-09-18T13:20:21;26.60;99.90
27667;DHT22;15074;50.940;5.282;2023-09-18T13:22:54;25.90;99.90
27667;DHT22;15074;50.940;5.282;2023-09-18T13:25:34;26.10;99.90
27667;DHT22;15074;50.940;5.282;2023-09-18T13:28:01;26.10;99.90
27667;DHT22;15074;50.940;5.282;2023-09-18T13:30:27;26.10;99.90
27667;DHT22;15074;50.940;5.282;2023-09-18T13:33:05;26.50;99.90
27667;DHT22;15074;50.940;5.282;2023-09-18T13:35:35;27.00;99.90
27667;DHT22;15074;50.940;5.282;2023-09-18T13:38:03;26.60;99.90
27667;DHT22;15074;50.940;5.282;2023-09-18T13:40:35;26.90;99.90
27667;DHT22;15074;50.940;5.282;2023-09-18T13:43:05;26.60;99.90
27667;DHT22;15074;50.940;5.282;2023-09-18T13:45:34;25.80;99.90
27667;DHT22;15074;50.940;5.282;2023-09-18T13:48:01;25.50;99.90
27667;DHT22;15074;50.940;5.282;2023-09-18T13:50:27;25.50;99.90
27667;DHT22;15074;50.940;5.282;2023-09-18T13:52:53;25.40;99.90
27667;DHT22;15074;50.940;5.282;2023-09-18T13:55:19;25.70;99.90
27667;DHT22;15074;50.940;5.282;2023-09-18T13:57:45;26.10;99.90
27667;DHT22;15074;50.940;5.282;2023-09-18T14:00:11;26.30;99.90
27667;DHT22;15074;50.940;5.282;2023-09-18T14:02:38;25.70;99.90
27667;DHT22;15074;50.940;5.282;2023-09-18T14:05:04;26.00;99.90
27667;DHT22;15074;50.940;5.282;2023-09-18T14:07:31;25.90;99.90
27667;DHT22;15074;50.940;5.282;2023-09-18T14:09:56;25.80;99.90
27667;DHT22;15074;50.940;5.282;2023-09-18T14:12:23;25.90;99.90
27667;DHT22;15074;50.940;5.282;2023-09-18T14:14:48;26.10;99.90
27667;DHT22;15074;50.940;5.282;2023-09-18T14:17:14;26.20;99.90
27667;DHT22;15074;50.940;5.282;2023-09-18T14:19:43;26.20;99.90
27667;DHT22;15074;50.940;5.282;2023-09-18T14:22:10;25.90;99.90
27667;DHT22;15074;50.940;5.282;2023-09-18T14:24:35;25.90;99.90
27667;DHT22;15074;50.940;5.282;2023-09-18T14:27:02;25.80;99.90
27667;DHT22;15074;50.940;5.282;2023-09-18T14:29:28;25.90;99.90
27667;DHT22;15074;50.940;5.282;2023-09-18T14:31:55;25.70;99.90
27667;DHT22;15074;50.940;5.282;2023-09-18T14:34:21;25.60;99.90
27667;DHT22;15074;50.940;5.282;2023-09-18T14:36:47;25.40;99.90
27667;DHT22;15074;50.940;5.282;2023-09-18T14:39:13;25.10;99.90
27667;DHT22;15074;50.940;5.282;2023-09-18T14:41:40;24.60;99.90
27667;DHT22;15074;50.940;5.282;2023-09-18T14:44:08;24.40;99.90
27667;DHT22;15074;50.940;5.282;2023-09-18T14:46:34;24.40;99.90
27667;DHT22;15074;50.940;5.282;2023-09-18T14:49:03;24.20;99.90
27667;DHT22;15074;50.940;5.282;2023-09-18T14:51:30;24.20;99.90
27667;DHT22;15074;50.940;5.282;2023-09-18T14:54:00;24.30;99.90
27667;DHT22;15074;50.940;5.282;2023-09-18T14:56:26;24.20;99.90
27667;DHT22;15074;50.940;5.282;2023-09-18T14:58:53;24.00;99.90
27667;DHT22;15074;50.940;5.282;2023-09-18T15:01:23;24.00;99.90
27667;DHT22;15074;50.940;5.282;2023-09-18T15:03:49;24.10;99.90
27667;DHT22;15074;50.940;5.282;2023-09-18T15:06:15;24.10;99.90
27667;DHT22;15074;50.940;5.282;2023-09-18T15:08:41;24.10;99.90
27667;DHT22;15074;50.940;5.282;2023-09-18T15:11:06;24.00;99.90
27667;DHT22;15074;50.940;5.282;2023-09-18T15:13:33;23.90;99.90
27667;DHT22;15074;50.940;5.282;2023-09-18T15:16:03;23.80;99.90
27667;DHT22;15074;50.940;5.282;2023-09-18T15:18:29;23.80;99.90
27667;DHT22;15074;50.940;5.282;2023-09-18T15:20:55;23.70;99.90
27667;DHT22;15074;50.940;5.282;2023-09-18T15:23:21;23.60;99.90
27667;DHT22;15074;50.940;5.282;2023-09-18T15:25:48;23.60;99.90
27667;DHT22;15074;50.940;5.282;2023-09-18T15:28:16;23.70;99.90
27667;DHT22;15074;50.940;5.282;2023-09-18T15:30:43;23.70;99.90
27667;DHT22;15074;50.940;5.282;2023-09-18T15:33:08;23.80;99.90
27667;DHT22;15074;50.940;5.282;2023-09-18T15:35:34;23.80;99.90
27667;DHT22;15074;50.940;5.282;2023-09-18T15:38:00;23.90;99.90
27667;DHT22;15074;50.940;5.282;2023-09-18T15:40:26;24.00;99.90
27667;DHT22;15074;50.940;5.282;2023-09-18T15:42:52;23.90;99.90
27667;DHT22;15074;50.940;5.282;2023-09-18T15:45:18;23.80;99.90
27667;DHT22;15074;50.940;5.282;2023-09-18T15:47:44;23.60;99.90
27667;DHT22;15074;50.940;5.282;2023-09-18T15:50:10;23.60;99.90
27667;DHT22;15074;50.940;5.282;2023-09-18T15:52:37;23.40;99.90